Time;durP1;ratioP1;P1;durP2;ratioP2;P2;SDS_P1;SDS_P2;PMS_P1;PMS_P2;Temp;Humidity;BMP_temperature;BMP_pressure;BME280_temperature;BME280_humidity;BME280_pressure;Samples;Min_cycle;Max_cycle;Signal;HPM_P1;HPM_P2
2022/08/08 00:00:35;;;;;;;4.17;2.52;;;;;;;11.60;65.17;100903.19;2075208;84;20985;-68
2022/08/08 00:04:03;;;;;;;3.02;2.37;;;;;;;11.59;65.27;100908.64;2075776;84;21011;-67
2022/08/08 00:07:15;;;;;;;3.27;2.22;;;;;;;11.56;65.21;100905.80;2071849;84;21548;-69
2022/08/08 00:10:50;;;;;;;3.77;2.75;;;;;;;11.51;65.29;100908.07;2069358;84;21598;-70
2022/08/08 00:14:14;;;;;;;2.65;2.30;;;;;;;11.47;65.45;100900.08;2071668;84;21010;-68
2022/08/08 00:17:29;;;;;;;6.90;2.52;;;;;;;11.42;65.41;100903.19;2071891;84;21053;-69
2022/08/08 00:20:42;;;;;;;3.08;2.60;;;;;;;11.38;65.48;100899.67;2075035;84;21045;-69
2022/08/08 00:24:10;;;;;;;3.17;2.27;;;;;;;11.34;65.64;100904.94;2076394;84;21564;-69
2022/08/08 00:27:15;;;;;;;5.83;2.60;;;;;;;11.31;65.58;100899.93;2075722;84;21661;-68
2022/08/08 00:30:17;;;;;;;3.30;2.80;;;;;;;11.29;65.74;100895.25;2072813;84;21488;-72
2022/08/08 00:33:26;;;;;;;3.12;2.40;;;;;;;11.28;65.98;100894.92;2074563;84;21000;-68
2022/08/08 00:36:31;;;;;;;5.10;2.52;;;;;;;11.27;65.86;100905.22;2075761;84;20990;-68
2022/08/08 00:39:46;;;;;;;3.00;2.62;;;;;;;11.21;65.85;100899.52;2075690;84;21004;-68
2022/08/08 00:43:24;;;;;;;4.40;2.80;;;;;;;11.16;66.14;100904.45;2065735;84;21077;-68
2022/08/08 00:46:58;;;;;;;3.87;2.62;;;;;;;11.14;66.28;100910.40;2078050;84;21016;-68
2022/08/08 00:50:27;;;;;;;3.72;2.58;;;;;;;11.10;66.29;100912.20;2075502;84;21038;-68
2022/08/08 00:53:54;;;;;;;2.58;2.20;;;;;;;11.00;66.26;100908.27;2072534;84;21039;-67
2022/08/08 00:57:44;;;;;;;3.70;2.30;;;;;;;10.89;66.30;100904.00;2074158;84;20959;-69
2022/08/08 01:01:18;;;;;;;4.55;2.52;;;;;;;10.87;66.33;100905.13;2067210;84;22228;-68
2022/08/08 01:04:38;;;;;;;4.00;2.45;;;;;;;10.84;66.48;100900.98;2076587;84;21074;-67
2022/08/08 01:08:19;;;;;;;4.08;2.67;;;;;;;10.89;66.53;100906.66;2078544;84;21350;-67
2022/08/08 01:11:52;;;;;;;3.35;2.60;;;;;;;10.89;66.88;100903.17;2071490;84;21569;-68
2022/08/08 01:15:23;;;;;;;3.62;2.92;;;;;;;10.72;67.16;100910.95;2067514;84;21042;-68
2022/08/08 01:19:16;;;;;;;3.07;2.77;;;;;;;10.66;67.07;100906.23;2063448;85;21079;-68
2022/08/08 01:22:38;;;;;;;2.83;2.52;;;;;;;10.62;67.18;100907.53;2061925;85;21056;-68
2022/08/08 01:26:08;;;;;;;6.70;2.70;;;;;;;10.64;67.30;100903.38;2055389;85;21028;-67
2022/08/08 01:29:27;;;;;;;5.17;2.30;;;;;;;10.65;67.37;100912.54;2060433;85;21094;-69
2022/08/08 01:33:19;;;;;;;5.08;3.00;;;;;;;10.59;67.30;100914.92;2061489;85;21542;-69
2022/08/08 01:36:54;;;;;;;3.08;2.40;;;;;;;10.71;67.53;100918.58;2060913;85;21574;-68
2022/08/08 01:40:11;;;;;;;5.47;2.83;;;;;;;10.71;67.53;100918.58;2061604;85;21582;-68
2022/08/08 01:43:33;;;;;;;4.60;3.05;;;;;;;10.74;67.36;100910.31;2063928;85;21553;-68
2022/08/08 01:46:55;;;;;;;5.37;2.98;;;;;;;10.54;67.50;100894.16;2060273;85;21007;-68
2022/08/08 01:50:20;;;;;;;5.10;2.90;;;;;;;10.48;67.23;100892.09;2059030;85;21049;-68
2022/08/08 01:53:40;;;;;;;4.53;3.00;;;;;;;10.48;67.23;100892.09;2064289;85;21001;-68
2022/08/08 01:57:01;;;;;;;4.50;2.90;;;;;;;10.60;67.59;100904.67;2067207;85;21000;-72
2022/08/08 02:00:22;;;;;;;4.67;2.22;;;;;;;10.52;67.52;100909.38;2061010;85;21024;-68
2022/08/08 02:03:43;;;;;;;6.58;2.17;;;;;;;10.51;67.33;100907.72;2058979;85;21025;-68
2022/08/08 02:07:01;;;;;;;2.33;2.12;;;;;;;10.41;67.33;100909.58;2037804;85;21020;-69
2022/08/08 02:10:25;;;;;;;3.33;3.00;;;;;;;10.36;67.60;100906.52;2060837;85;20995;-69
2022/08/08 02:13:53;;;;;;;6.35;2.60;;;;;;;10.42;67.73;100902.81;2060367;85;21530;-69
2022/08/08 02:17:30;;;;;;;3.98;2.20;;;;;;;10.41;67.68;100905.59;2074959;84;21040;-69
2022/08/08 02:24:39;;;;;;;3.70;3.05;;;;;;;10.32;67.71;100916.09;2075816;84;21082;-68
2022/08/08 02:28:11;;;;;;;3.45;2.40;;;;;;;10.33;67.88;100910.30;2068786;84;21122;-67
2022/08/08 02:31:40;;;;;;;5.85;2.83;;;;;;;10.25;67.59;100913.67;2074192;84;20958;-67
2022/08/08 02:35:05;;;;;;;3.45;3.10;;;;;;;10.22;67.74;100920.59;2072580;84;21019;-66
2022/08/08 02:38:16;;;;;;;5.28;2.70;;;;;;;10.16;67.91;100915.84;2078431;84;21006;-68
2022/08/08 02:42:10;;;;;;;2.83;2.30;;;;;;;10.04;67.91;100920.98;2074108;84;21600;-67
2022/08/08 02:45:21;;;;;;;3.05;2.55;;;;;;;10.00;68.01;100917.78;2073626;84;21029;-66
2022/08/08 02:48:53;;;;;;;3.12;2.35;;;;;;;9.97;68.05;100924.70;2060847;84;21029;-67
2022/08/08 02:52:06;;;;;;;;;;;;;;;9.92;67.93;100916.83;2058050;84;21463;-66
2022/08/08 02:55:32;;;;;;;4.20;2.60;;;;;;;9.87;68.27;100927.86;2061818;84;20092;-67
2022/08/08 02:59:07;;;;;;;3.30;2.85;;;;;;;9.78;68.32;100924.24;2072855;84;21559;-68
2022/08/08 03:02:30;;;;;;;3.80;2.40;;;;;;;9.79;68.43;100935.18;2073450;84;21080;-67
2022/08/08 03:06:08;;;;;;;3.05;2.25;;;;;;;9.82;68.44;100925.62;2078320;84;21072;-67
2022/08/08 03:09:55;;;;;;;7.80;3.00;;;;;;;9.75;68.23;100931.16;2078140;84;21133;-68
2022/08/08 03:13:43;;;;;;;4.97;2.90;;;;;;;9.76;68.74;100926.19;2070730;84;21054;-67
2022/08/08 03:17:15;;;;;;;2.90;2.60;;;;;;;9.74;69.10;100929.95;2081905;84;21523;-67
2022/08/08 03:20:16;;;;;;;3.77;2.55;;;;;;;9.77;69.27;100933.65;2074380;83;21062;-67
2022/08/08 03:23:21;;;;;;;3.33;2.17;;;;;;;9.75;68.87;100936.45;2072506;84;21084;-67
2022/08/08 03:26:31;;;;;;;2.58;2.20;;;;;;;9.73;68.72;100939.73;2033817;85;21474;-67
2022/08/08 03:29:38;;;;;;;4.40;3.10;;;;;;;9.63;68.46;100938.42;2079767;84;21007;-68
2022/08/08 03:36:02;;;;;;;;;;;;;;;9.69;68.61;100948.95;2082714;84;21071;-67
2022/08/08 03:39:03;;;;;;;7.62;2.98;;;;;;;9.68;68.72;100947.26;2078254;84;20422;-66
2022/08/08 03:42:06;;;;;;;4.30;2.70;;;;;;;9.65;68.79;100950.19;2080015;84;21108;-66
2022/08/08 03:45:20;;;;;;;3.47;3.00;;;;;;;9.63;68.82;100952.17;2080705;84;21512;-66
2022/08/08 03:48:21;;;;;;;4.00;2.33;;;;;;;9.62;68.96;100956.61;2096130;83;21120;-67
2022/08/08 03:51:24;;;;;;;3.80;2.60;;;;;;;9.68;69.17;100948.58;2095425;84;21602;-67
2022/08/08 03:54:28;;;;;;;5.03;2.80;;;;;;;9.71;69.27;100943.00;2093990;83;21167;-70
2022/08/08 03:57:29;;;;;;;2.87;2.55;;;;;;;9.80;69.44;100953.27;2098873;84;21074;-71
2022/08/08 04:00:31;;;;;;;4.90;2.72;;;;;;;9.91;69.33;100950.93;2090965;84;21101;-66
2022/08/08 04:03:35;;;;;;;3.35;3.00;;;;;;;10.01;69.60;100945.96;2096174;84;21067;-66
2022/08/08 04:06:38;;;;;;;3.85;2.70;;;;;;;10.26;69.72;100945.83;2100260;84;21615;-66
2022/08/08 04:09:40;;;;;;;5.20;3.67;;;;;;;10.53;69.44;100944.21;2092899;84;21050;-67
2022/08/08 04:12:41;;;;;;;5.87;2.92;;;;;;;10.71;69.37;100950.92;2096468;84;21025;-66
2022/08/08 04:15:43;;;;;;;5.80;3.15;;;;;;;10.84;69.25;100958.53;2093856;83;21062;-66
2022/08/08 04:18:47;;;;;;;7.22;2.92;;;;;;;10.92;69.31;100954.64;2074251;84;21091;-68
2022/08/08 04:21:50;;;;;;;3.30;2.72;;;;;;;11.03;69.26;100960.25;2091856;84;20984;-70
2022/08/08 04:24:52;;;;;;;4.12;2.98;;;;;;;11.10;69.06;100960.84;2098701;84;21092;-69
2022/08/08 04:27:53;;;;;;;7.90;2.83;;;;;;;11.25;69.18;100969.62;2094817;84;21015;-70
2022/08/08 04:30:55;;;;;;;2.85;2.50;;;;;;;11.43;69.01;100965.13;2072286;84;21111;-67
2022/08/08 04:33:56;;;;;;;6.50;2.83;;;;;;;11.71;68.81;100964.55;2074976;84;21052;-66
2022/08/08 04:36:58;;;;;;;4.33;2.85;;;;;;;11.86;68.60;100963.56;2070368;84;21114;-67
2022/08/08 04:40:02;;;;;;;6.42;2.70;;;;;;;12.03;68.53;100966.67;2072544;84;20977;-67
2022/08/08 04:43:05;;;;;;;3.83;3.12;;;;;;;12.32;68.62;100963.70;2062644;85;21026;-67
2022/08/08 04:46:08;;;;;;;4.55;3.02;;;;;;;12.54;68.27;100971.64;2055019;85;21730;-67
2022/08/08 04:49:11;;;;;;;4.28;2.60;;;;;;;12.79;68.30;100966.43;2078197;84;21469;-66
2022/08/08 04:52:12;;;;;;;5.83;3.22;;;;;;;13.16;68.10;100971.38;2074953;84;21085;-67
2022/08/08 04:55:14;;;;;;;4.10;2.85;;;;;;;13.75;67.75;100965.16;2066147;84;21112;-67
2022/08/08 04:58:16;;;;;;;4.37;2.95;;;;;;;14.32;67.29;100967.23;2081132;84;21581;-67
2022/08/08 05:01:17;;;;;;;4.80;3.00;;;;;;;14.99;66.97;100967.37;2072633;84;21048;-67
2022/08/08 05:04:20;;;;;;;9.33;2.90;;;;;;;15.69;66.21;100972.63;2076518;84;21616;-67
2022/08/08 05:07:21;;;;;;;8.80;3.10;;;;;;;16.38;65.62;100968.95;2067626;84;21993;-70
2022/08/08 05:10:22;;;;;;;9.68;2.70;;;;;;;17.03;64.81;100968.70;2075552;84;21103;-67
2022/08/08 05:13:24;;;;;;;3.95;2.83;;;;;;;17.69;63.96;100972.59;2072848;84;21036;-67
2022/08/08 05:16:25;;;;;;;4.05;2.87;;;;;;;18.49;63.46;100979.41;2062792;84;21024;-68
2022/08/08 05:19:27;;;;;;;4.28;2.75;;;;;;;19.26;62.04;100976.99;2060960;85;20970;-68
2022/08/08 05:22:29;;;;;;;4.70;3.00;;;;;;;19.65;60.81;100978.13;2062303;86;20942;-68
2022/08/08 05:25:31;;;;;;;6.12;3.30;;;;;;;20.18;60.48;100979.16;2063369;85;21092;-68
2022/08/08 05:28:32;;;;;;;6.12;2.58;;;;;;;20.71;59.23;100973.67;2059508;85;21023;-68
2022/08/08 05:31:35;;;;;;;7.28;2.72;;;;;;;21.22;57.92;100979.03;2059393;85;21051;-68
2022/08/08 05:34:49;;;;;;;2.75;2.35;;;;;;;21.59;57.03;100974.38;2043672;86;21817;-68
2022/08/08 05:37:58;;;;;;;3.58;2.87;;;;;;;22.00;55.84;100975.73;2060126;85;21085;-70
2022/08/08 05:41:08;;;;;;;3.35;2.70;;;;;;;22.25;54.79;100981.97;2048615;85;21133;-69
2022/08/08 05:44:12;;;;;;;4.60;2.67;;;;;;;22.36;54.38;100987.17;2058422;85;21108;-70
2022/08/08 05:47:16;;;;;;;3.87;3.08;;;;;;;22.58;53.31;100988.89;2059789;85;21013;-68
2022/08/08 05:50:17;;;;;;;4.65;2.70;;;;;;;22.47;51.87;100981.02;2059114;85;21102;-68
2022/08/08 05:53:27;;;;;;;4.78;3.15;;;;;;;22.52;52.51;100989.79;2060692;85;21051;-69
2022/08/08 05:56:35;;;;;;;4.05;2.55;;;;;;;22.52;51.11;100989.26;2060353;85;21461;-69
2022/08/08 05:59:39;;;;;;;5.95;2.87;;;;;;;22.91;51.70;100987.68;2062310;85;21367;-69
2022/08/08 06:06:08;;;;;;;3.95;2.55;;;;;;;23.39;50.68;100990.92;2061865;84;21007;-69
2022/08/08 06:09:13;;;;;;;5.67;2.58;;;;;;;23.73;49.69;101000.76;2067889;85;21065;-69
2022/08/08 06:12:16;;;;;;;3.95;2.50;;;;;;;23.97;49.53;101002.45;2066081;85;21051;-70
2022/08/08 06:15:18;;;;;;;3.83;2.47;;;;;;;24.22;48.82;101002.23;2065197;84;21021;-69
2022/08/08 06:18:23;;;;;;;2.20;2.00;;;;;;;24.39;48.06;100999.64;2069809;84;21097;-70
2022/08/08 06:21:26;;;;;;;4.60;2.33;;;;;;;24.52;47.02;101000.75;2078753;84;21425;-70
2022/08/08 06:24:28;;;;;;;6.33;2.47;;;;;;;24.64;47.39;100996.70;2071805;84;21028;-69
2022/08/08 06:27:49;;;;;;;8.93;2.77;;;;;;;24.90;47.49;101002.11;2076799;84;20942;-69
2022/08/08 06:30:54;;;;;;;4.25;2.15;;;;;;;25.15;46.44;101003.73;2073711;84;21089;-70
2022/08/08 06:34:10;;;;;;;2.77;2.15;;;;;;;25.38;46.02;101004.16;2077415;84;21003;-69
2022/08/08 06:37:13;;;;;;;5.15;2.42;;;;;;;25.42;45.42;101008.02;2078703;84;20969;-70
2022/08/08 06:40:15;;;;;;;5.30;2.45;;;;;;;25.56;45.26;101012.08;2075740;84;21073;-69
2022/08/08 06:43:20;;;;;;;5.12;2.25;;;;;;;25.61;44.69;101006.73;2074824;84;21071;-70
2022/08/08 06:46:29;;;;;;;3.95;1.92;;;;;;;25.80;44.43;101005.98;2071636;84;21075;-71
2022/08/08 06:49:32;;;;;;;4.40;1.67;;;;;;;26.19;43.65;101003.91;2077009;84;20981;-71
2022/08/08 06:52:34;;;;;;;6.25;1.80;;;;;;;25.87;41.82;101009.91;2071222;84;21036;-69
2022/08/08 06:55:43;;;;;;;4.47;1.90;;;;;;;25.39;41.32;101007.97;2075890;84;21093;-71
2022/08/08 06:58:43;;;;;;;3.72;1.80;;;;;;;25.08;41.42;101012.50;2074653;84;21107;-69
2022/08/08 07:01:53;;;;;;;3.33;2.47;;;;;;;25.21;41.74;101001.39;2077074;84;21394;-69
2022/08/08 07:05:08;;;;;;;2.23;1.77;;;;;;;25.27;40.44;101005.31;2071161;84;21427;-69
2022/08/08 07:08:18;;;;;;;3.22;1.70;;;;;;;25.17;40.48;101002.42;2076698;84;20987;-69
2022/08/08 07:11:25;;;;;;;2.80;1.50;;;;;;;24.97;40.33;101001.97;2073653;84;21025;-70
2022/08/08 07:14:31;;;;;;;2.85;1.70;;;;;;;25.05;39.65;100987.47;2071984;84;21050;-68
2022/08/08 07:17:46;;;;;;;3.60;1.27;;;;;;;25.16;40.50;100991.25;2077159;84;21061;-69
2022/08/08 07:20:50;;;;;;;3.27;1.47;;;;;;;25.37;39.16;100991.62;2066663;84;21746;-70
2022/08/08 07:24:07;;;;;;;2.90;1.55;;;;;;;25.12;38.14;100990.61;2078004;84;21636;-73
2022/08/08 07:27:25;;;;;;;3.15;1.70;;;;;;;24.80;38.88;100995.92;2077028;84;21468;-71
2022/08/08 07:30:27;;;;;;;2.02;1.37;;;;;;;24.45;37.83;100996.01;2078386;84;21001;-69
2022/08/08 07:33:31;;;;;;;1.60;1.47;;;;;;;24.43;38.85;101002.19;2076934;84;21421;-70
2022/08/08 07:36:33;;;;;;;4.33;1.30;;;;;;;24.60;37.74;101004.47;2075328;84;21515;-69
2022/08/08 07:39:35;;;;;;;2.15;1.50;;;;;;;24.59;37.64;101000.11;2082099;84;21535;-69
2022/08/08 07:42:40;;;;;;;3.90;1.30;;;;;;;24.64;37.48;100994.48;2077800;84;21028;-70
2022/08/08 07:45:44;;;;;;;2.30;1.30;;;;;;;24.67;37.21;101003.00;2074976;84;21064;-73
2022/08/08 07:48:46;;;;;;;2.72;1.82;;;;;;;24.74;36.62;101002.32;2074074;84;21587;-68
2022/08/08 07:51:48;;;;;;;2.55;1.82;;;;;;;24.87;37.36;101002.59;2081195;84;21014;-70
2022/08/08 07:55:07;;;;;;;2.25;1.35;;;;;;;24.65;36.43;100998.33;2070333;84;21081;-69
2022/08/08 07:58:35;;;;;;;1.15;1.07;;;;;;;24.64;37.08;100998.56;2078414;84;21068;-71
2022/08/08 08:01:41;;;;;;;1.52;1.20;;;;;;;24.71;36.36;100996.55;2077743;84;21563;-69
2022/08/08 08:04:46;;;;;;;0.98;0.98;;;;;;;24.77;36.68;101009.16;2077164;84;21021;-69
2022/08/08 08:07:52;;;;;;;3.33;1.12;;;;;;;24.70;37.27;101001.16;2063717;84;21045;-69
2022/08/08 08:10:57;;;;;;;1.92;1.30;;;;;;;24.45;36.97;101001.97;2075600;84;21503;-69
2022/08/08 08:14:05;;;;;;;1.57;1.37;;;;;;;24.56;37.19;100999.23;2078145;84;21534;-70
2022/08/08 08:17:09;;;;;;;5.67;1.40;;;;;;;24.82;36.52;101007.91;2077076;85;21144;-69
2022/08/08 08:20:13;;;;;;;4.30;1.20;;;;;;;25.18;37.46;101001.34;2080287;85;21026;-70
2022/08/08 08:23:14;;;;;;;1.90;1.20;;;;;;;25.41;36.81;100996.33;2079819;85;21006;-69
2022/08/08 08:26:17;;;;;;;2.50;1.40;;;;;;;25.57;36.06;101005.59;2078461;85;20995;-69
2022/08/08 08:29:20;;;;;;;2.77;1.22;;;;;;;25.46;36.61;101007.30;2076957;85;21031;-70
2022/08/08 08:32:21;;;;;;;2.62;1.27;;;;;;;25.53;35.97;101003.06;2077188;85;21105;-69
2022/08/08 08:35:23;;;;;;;2.37;1.32;;;;;;;25.49;36.14;101001.38;2075638;85;21042;-69
2022/08/08 08:38:24;;;;;;;3.00;1.62;;;;;;;25.74;36.23;101011.05;2077411;85;21113;-69
2022/08/08 08:41:28;;;;;;;1.27;1.10;;;;;;;25.58;34.83;101000.98;2075744;85;21035;-70
2022/08/08 08:44:30;;;;;;;5.92;1.52;;;;;;;25.09;35.34;101008.70;2078810;85;21025;-70
2022/08/08 08:47:33;;;;;;;3.30;1.55;;;;;;;25.11;35.86;100996.55;2076777;85;21088;-70
2022/08/08 08:50:37;;;;;;;3.17;1.50;;;;;;;25.34;36.24;101000.26;2074531;85;21147;-69
2022/08/08 08:53:45;;;;;;;2.00;1.15;;;;;;;25.38;35.87;100999.54;2074638;85;21080;-71
2022/08/08 08:56:48;;;;;;;2.47;1.10;;;;;;;25.46;35.87;100997.79;2075083;85;21106;-70
2022/08/08 08:59:54;;;;;;;2.37;1.30;;;;;;;25.70;35.48;100995.75;2075936;85;21172;-70
2022/08/08 09:02:59;;;;;;;1.77;1.17;;;;;;;25.63;35.99;101001.07;2053528;85;21543;-69
2022/08/08 09:06:02;;;;;;;1.92;1.15;;;;;;;25.98;36.36;100994.59;2081152;85;21465;-69
2022/08/08 09:09:11;;;;;;;1.85;1.25;;;;;;;25.48;34.98;100998.38;2077620;85;21042;-70
2022/08/08 09:12:16;;;;;;;2.87;1.40;;;;;;;25.07;36.42;100997.29;2077271;85;21078;-70
2022/08/08 09:15:17;;;;;;;2.25;1.35;;;;;;;25.41;36.20;100995.52;2056117;85;21322;-70
2022/08/08 09:18:19;;;;;;;3.42;1.25;;;;;;;25.92;35.92;100996.41;2073443;84;21138;-69
2022/08/08 09:21:22;;;;;;;4.22;1.30;;;;;;;25.76;35.34;100996.66;2069942;84;21083;-71
2022/08/08 09:24:24;;;;;;;2.27;1.35;;;;;;;25.32;35.69;100999.16;2076226;84;20996;-70
2022/08/08 09:27:26;;;;;;;2.12;1.30;;;;;;;24.73;36.11;101006.11;2073711;84;21614;-69
2022/08/08 09:30:32;;;;;;;4.20;1.47;;;;;;;24.58;35.75;101009.33;2073109;84;21549;-70
2022/08/08 09:33:36;;;;;;;4.00;1.47;;;;;;;24.80;35.81;101008.67;2035876;84;21082;-70
2022/08/08 09:36:40;;;;;;;3.37;1.30;;;;;;;24.83;35.57;101002.77;2074139;84;21604;-73
2022/08/08 09:39:56;;;;;;;3.85;1.67;;;;;;;24.41;36.12;101008.34;2069567;84;20982;-70
2022/08/08 09:43:20;;;;;;;2.12;1.50;;;;;;;24.38;36.83;101009.67;2071926;84;21069;-70
2022/08/08 09:46:23;;;;;;;4.92;1.40;;;;;;;24.47;36.04;101010.16;2072012;84;21537;-70
2022/08/08 09:49:25;;;;;;;2.58;1.30;;;;;;;24.31;36.26;101013.02;2077590;84;20998;-70
2022/08/08 09:52:31;;;;;;;2.67;1.15;;;;;;;24.28;36.07;101009.96;2078516;84;21074;-69
2022/08/08 09:55:32;;;;;;;2.00;1.35;;;;;;;24.15;36.66;101005.58;2076731;84;21087;-70
2022/08/08 09:58:38;;;;;;;3.05;1.30;;;;;;;24.16;36.57;101013.50;2074553;84;21012;-69
2022/08/08 10:01:42;;;;;;;3.25;1.42;;;;;;;24.06;36.95;101011.89;2071351;84;21089;-70
2022/08/08 10:04:45;;;;;;;1.92;1.07;;;;;;;24.44;37.42;101001.66;2072483;84;21427;-70
2022/08/08 10:07:56;;;;;;;4.30;1.27;;;;;;;25.09;36.74;100999.20;2074970;84;21033;-69
2022/08/08 10:10:58;;;;;;;2.42;1.00;;;;;;;25.51;35.97;101001.14;2069899;84;21050;-70
2022/08/08 10:14:03;;;;;;;2.40;1.30;;;;;;;25.51;35.96;100998.42;2072805;84;21101;-69
2022/08/08 10:17:08;;;;;;;6.25;1.45;;;;;;;25.14;35.70;100993.88;2071600;84;21570;-70
2022/08/08 10:20:10;;;;;;;1.70;1.07;;;;;;;24.66;35.65;100991.83;2076120;84;21498;-70
2022/08/08 10:23:15;;;;;;;2.67;1.22;;;;;;;24.84;35.13;100996.30;2075336;84;21064;-70
2022/08/08 10:26:41;;;;;;;5.47;1.15;;;;;;;25.17;35.93;100988.84;2078625;84;21506;-73
2022/08/08 10:29:53;;;;;;;1.90;1.07;;;;;;;25.70;35.76;100988.12;2074548;84;21525;-71
2022/08/08 10:32:57;;;;;;;3.75;1.50;;;;;;;25.99;33.22;100985.36;2079677;84;21033;-70
2022/08/08 10:36:03;;;;;;;2.17;1.10;;;;;;;25.42;34.39;100989.81;2083133;84;21010;-74
2022/08/08 10:39:05;;;;;;;2.17;1.40;;;;;;;24.84;34.57;100988.16;2072145;84;21517;-70
2022/08/08 10:42:06;;;;;;;4.30;1.30;;;;;;;24.45;35.27;100985.70;2075820;84;21057;-70
2022/08/08 10:45:10;;;;;;;4.25;1.42;;;;;;;24.60;35.29;100987.37;2077429;84;21044;-70
2022/08/08 10:48:12;;;;;;;2.65;1.30;;;;;;;25.19;35.71;100981.80;2073182;84;21502;-69
2022/08/08 10:51:14;;;;;;;3.60;1.20;;;;;;;25.52;35.26;100973.44;2070947;84;21062;-70
2022/08/08 10:54:21;;;;;;;2.52;1.30;;;;;;;25.77;35.21;100971.68;2069933;84;21010;-70
2022/08/08 10:57:22;;;;;;;2.45;1.37;;;;;;;25.76;35.07;100974.91;2080938;84;21078;-70
2022/08/08 11:00:26;;;;;;;4.83;1.42;;;;;;;25.57;35.22;100968.09;2078912;84;21039;-69
2022/08/08 11:03:32;;;;;;;2.62;1.50;;;;;;;25.80;35.87;100967.11;2076822;84;21001;-69
2022/08/08 11:06:35;;;;;;;3.45;1.30;;;;;;;25.97;35.67;100970.67;2071824;84;21001;-70
2022/08/08 11:09:42;;;;;;;3.05;1.60;;;;;;;26.37;35.62;100969.06;2074404;84;21112;-70
2022/08/08 11:13:01;;;;;;;4.10;1.45;;;;;;;26.80;34.48;100975.63;2079147;84;20999;-70
2022/08/08 11:16:02;;;;;;;8.38;1.52;;;;;;;26.64;34.03;100979.27;2077364;84;20993;-70
2022/08/08 11:19:04;;;;;;;2.42;1.30;;;;;;;26.27;33.68;100979.83;2053829;85;21042;-70
2022/08/08 11:22:08;;;;;;;2.08;1.30;;;;;;;26.14;33.75;100970.11;2047409;85;21073;-74
2022/08/08 11:25:10;;;;;;;2.10;1.22;;;;;;;26.09;33.46;100970.56;2042176;85;21051;-70
2022/08/08 11:28:12;;;;;;;5.40;1.55;;;;;;;26.24;33.61;100963.98;2062361;85;21068;-70
2022/08/08 11:31:19;;;;;;;3.77;1.40;;;;;;;26.54;34.15;100962.25;2063018;85;21072;-71
2022/08/08 11:34:21;;;;;;;4.97;1.10;;;;;;;26.64;34.16;100964.29;2065365;85;21031;-70
2022/08/08 11:37:25;;;;;;;3.85;1.75;;;;;;;26.54;32.84;100972.31;2064814;85;21032;-71
2022/08/08 11:40:26;;;;;;;2.27;1.45;;;;;;;26.42;32.16;100956.63;2058869;85;21047;-69
2022/08/08 11:43:29;;;;;;;1.95;1.27;;;;;;;26.19;32.15;100953.59;2056865;85;21059;-71
2022/08/08 11:46:35;;;;;;;1.70;1.35;;;;;;;26.23;33.20;100961.52;2062720;85;21532;-69
2022/08/08 11:49:38;;;;;;;2.08;1.22;;;;;;;26.23;33.06;100957.45;2066034;85;21061;-70
2022/08/08 11:52:40;;;;;;;2.55;1.60;;;;;;;26.35;32.92;100963.05;2084048;84;21429;-70
2022/08/08 11:55:49;;;;;;;3.90;1.47;;;;;;;26.77;33.83;100965.80;2084373;83;21056;-69
2022/08/08 11:58:52;;;;;;;2.62;1.98;;;;;;;27.01;32.49;100960.91;2065176;85;21056;-69
2022/08/08 12:02:05;;;;;;;2.67;2.12;;;;;;;26.01;31.30;100966.91;2059384;85;21021;-69
2022/08/08 12:05:10;;;;;;;3.00;1.85;;;;;;;25.26;32.33;100967.01;2053191;85;21070;-70
2022/08/08 12:08:11;;;;;;;2.45;1.80;;;;;;;24.91;33.01;100965.75;2040434;86;21534;-70
2022/08/08 12:11:17;;;;;;;4.30;2.45;;;;;;;24.87;33.65;100967.31;2063933;85;21515;-70
2022/08/08 12:14:23;;;;;;;3.02;2.65;;;;;;;24.74;33.76;100971.11;2064951;85;21040;-70
2022/08/08 12:17:38;;;;;;;6.37;2.17;;;;;;;24.61;34.09;100968.69;2057849;84;21215;-70
2022/08/08 12:20:40;;;;;;;4.15;2.70;;;;;;;24.73;34.13;100959.16;2057001;85;21024;-69
2022/08/08 12:23:41;;;;;;;7.30;2.77;;;;;;;24.97;33.21;100957.99;2063256;84;21088;-70
2022/08/08 12:26:51;;;;;;;5.87;2.60;;;;;;;25.18;33.44;100953.82;2062001;85;21073;-73
2022/08/08 12:29:58;;;;;;;4.25;2.20;;;;;;;25.38;33.55;100952.55;2079994;84;20954;-73
2022/08/08 12:33:00;;;;;;;3.67;2.27;;;;;;;25.58;33.04;100946.63;2078041;84;21062;-69
2022/08/08 12:36:13;;;;;;;2.83;2.17;;;;;;;25.71;33.09;100949.85;2081280;84;21012;-70
2022/08/08 12:39:22;;;;;;;1.82;1.67;;;;;;;25.86;33.31;100947.94;2069692;84;21499;-69
2022/08/08 12:42:23;;;;;;;3.72;1.70;;;;;;;25.73;32.62;100953.66;2071088;84;21068;-70
2022/08/08 12:45:35;;;;;;;3.27;2.08;;;;;;;25.75;32.55;100952.89;2072157;84;21017;-70
2022/08/08 12:48:36;;;;;;;4.62;1.98;;;;;;;26.03;33.10;100943.02;2077531;84;21002;-69
2022/08/08 12:51:43;;;;;;;3.15;1.70;;;;;;;26.24;32.29;100935.96;2075997;84;21158;-70
2022/08/08 12:54:44;;;;;;;2.30;1.50;;;;;;;26.41;31.33;100945.44;2077995;84;21789;-70
2022/08/08 12:57:45;;;;;;;5.17;1.75;;;;;;;26.02;32.33;100929.97;2070512;84;20996;-70
2022/08/08 13:00:47;;;;;;;1.92;1.50;;;;;;;25.67;31.61;100939.17;2071650;84;21034;-70
2022/08/08 13:03:49;;;;;;;4.53;1.57;;;;;;;25.25;31.97;100940.08;2099757;83;21033;-70
2022/08/08 13:07:03;;;;;;;3.02;1.27;;;;;;;25.23;32.50;100939.52;2058167;85;21073;-69
2022/08/08 13:10:15;;;;;;;2.35;1.37;;;;;;;25.47;32.60;100934.22;2076435;84;21852;-70
2022/08/08 13:13:28;;;;;;;2.42;1.20;;;;;;;25.42;31.82;100927.34;2098209;84;21018;-70
2022/08/08 13:16:33;;;;;;;2.12;1.35;;;;;;;25.09;32.79;100924.03;2089857;84;21041;-70
2022/08/08 13:19:36;;;;;;;1.87;1.30;;;;;;;25.22;33.00;100916.13;2099127;83;21091;-71
2022/08/08 13:22:37;;;;;;;1.25;1.12;;;;;;;25.50;33.49;100913.89;2073276;84;21073;-73
2022/08/08 13:25:39;;;;;;;3.00;1.57;;;;;;;25.83;33.42;100917.17;2072695;84;20995;-71
2022/08/08 13:28:40;;;;;;;1.85;1.50;;;;;;;25.77;32.37;100915.42;2076214;84;21029;-69
2022/08/08 13:31:49;;;;;;;1.62;1.07;;;;;;;25.48;32.46;100906.01;2081565;84;21064;-70
2022/08/08 13:34:55;;;;;;;2.60;1.37;;;;;;;25.21;32.94;100915.85;2074580;84;21434;-71
2022/08/08 13:38:02;;;;;;;1.67;1.32;;;;;;;24.86;32.88;100910.01;2079955;84;21448;-70
2022/08/08 13:41:05;;;;;;;7.17;2.00;;;;;;;24.77;32.42;100908.75;2070179;84;21018;-70
2022/08/08 13:44:07;;;;;;;2.55;1.37;;;;;;;24.60;33.55;100920.36;2074558;84;21048;-71
2022/08/08 13:47:16;;;;;;;2.35;1.50;;;;;;;24.70;33.50;100911.62;2074954;84;22498;-70
2022/08/08 13:50:19;;;;;;;3.20;1.43;;;;;;;24.73;33.57;100910.31;2060691;85;21497;-70
2022/08/08 13:53:30;;;;;;;1.92;1.40;;;;;;;24.94;33.30;100904.73;2077075;84;21322;-73
2022/08/08 13:56:35;;;;;;;2.42;1.15;;;;;;;25.09;33.21;100905.53;2081163;84;21523;-69
2022/08/08 13:59:41;;;;;;;2.45;1.02;;;;;;;25.19;33.30;100901.69;2078429;84;21686;-70
2022/08/08 14:02:42;;;;;;;1.12;1.02;;;;;;;25.10;33.05;100910.73;2078345;84;21119;-70
2022/08/08 14:05:43;;;;;;;2.05;1.35;;;;;;;24.98;32.39;100906.73;2079286;84;21023;-70
2022/08/08 14:08:46;;;;;;;1.67;1.00;;;;;;;24.77;32.86;100910.11;2060751;84;21028;-69
2022/08/08 14:11:47;;;;;;;1.80;1.37;;;;;;;24.50;32.64;100911.22;2071724;84;21607;-69
2022/08/08 14:14:48;;;;;;;1.95;1.10;;;;;;;24.17;32.77;100916.72;2080129;84;21044;-70
2022/08/08 14:18:02;;;;;;;2.58;1.00;;;;;;;23.98;33.36;100911.95;2067224;84;20986;-70
2022/08/08 14:21:05;;;;;;;3.33;1.10;;;;;;;23.94;33.52;100906.72;2079722;84;21108;-73
2022/08/08 14:24:07;;;;;;;1.42;1.17;;;;;;;24.18;33.68;100915.64;2077303;84;21698;-69
2022/08/08 14:27:20;;;;;;;3.62;1.82;;;;;;;24.51;34.42;100916.38;2080077;84;21092;-69
2022/08/08 14:30:27;;;;;;;1.15;1.10;;;;;;;24.66;33.50;100913.69;2100590;84;21708;-69
2022/08/08 14:33:29;;;;;;;1.25;1.10;;;;;;;24.82;33.40;100908.86;2092500;84;21060;-70
2022/08/08 14:36:39;;;;;;;3.22;1.20;;;;;;;24.85;33.80;100909.73;2095318;84;21028;-70
2022/08/08 14:39:42;;;;;;;3.05;1.35;;;;;;;24.77;33.30;100906.04;2062501;84;21478;-70
2022/08/08 14:42:45;;;;;;;3.27;1.12;;;;;;;24.69;33.51;100914.56;2073774;84;21060;-69
2022/08/08 14:45:46;;;;;;;2.33;0.98;;;;;;;24.55;33.39;100916.21;2070777;84;21127;-70
2022/08/08 14:48:48;;;;;;;1.85;1.07;;;;;;;24.29;33.26;100920.22;2075680;84;21432;-69
2022/08/08 14:51:50;;;;;;;2.30;1.10;;;;;;;24.04;33.69;100921.02;2083935;84;21055;-69